createdAt,value
2018-07-23T00:02:46.016Z,99.90
2018-07-23T00:05:14.513Z,99.90
2018-07-23T00:07:42.996Z,99.90
2018-07-23T00:10:11.621Z,99.90
2018-07-23T00:12:40.436Z,99.90
2018-07-23T00:15:09.352Z,99.90
2018-07-23T00:17:38.016Z,99.90
2018-07-23T00:20:06.564Z,99.90
2018-07-23T00:22:35.097Z,99.90
2018-07-23T00:25:03.781Z,99.90
2018-07-23T00:27:32.289Z,99.90
2018-07-23T00:30:00.841Z,99.90
2018-07-23T00:32:29.349Z,99.90
2018-07-23T00:34:57.840Z,99.90
2018-07-23T00:37:26.349Z,99.90
2018-07-23T00:39:54.845Z,99.90
2018-07-23T00:44:51.564Z,99.90
2018-07-23T00:47:20.064Z,99.90
2018-07-23T00:49:48.560Z,99.90
2018-07-23T00:52:17.081Z,99.90
2018-07-23T00:54:45.572Z,99.90
2018-07-23T00:57:14.356Z,99.90
2018-07-23T00:59:42.844Z,99.90
2018-07-23T01:02:11.340Z,99.90
2018-07-23T01:04:39.877Z,99.90
2018-07-23T01:07:08.400Z,99.90
2018-07-23T01:09:36.872Z,99.90
2018-07-23T01:12:05.397Z,99.90
2018-07-23T01:14:33.884Z,99.90
2018-07-23T01:17:02.401Z,99.90
2018-07-23T01:19:30.889Z,99.90
2018-07-23T01:21:59.393Z,99.90
2018-07-23T01:24:27.888Z,99.90
2018-07-23T01:26:56.400Z,99.90
2018-07-23T01:31:53.072Z,99.90
2018-07-23T01:34:21.572Z,99.90
2018-07-23T01:36:50.057Z,99.90
2018-07-23T01:39:18.561Z,99.90
2018-07-23T01:41:47.039Z,99.90
2018-07-23T01:44:15.541Z,99.90
2018-07-23T01:46:44.032Z,99.90
2018-07-23T01:51:40.780Z,99.90
2018-07-23T01:54:09.282Z,99.90
2018-07-23T01:59:05.948Z,99.90
2018-07-23T02:01:34.451Z,99.90
2018-07-23T02:04:02.936Z,99.90
2018-07-23T02:06:31.450Z,99.90
2018-07-23T02:08:59.945Z,99.90
2018-07-23T02:11:28.464Z,99.90
2018-07-23T02:13:56.961Z,99.90
2018-07-23T02:16:25.468Z,99.90
2018-07-23T02:18:53.972Z,99.90
2018-07-23T02:21:22.432Z,99.90
2018-07-23T02:23:50.919Z,99.90
2018-07-23T02:26:19.386Z,99.90
2018-07-23T02:28:47.888Z,99.90
2018-07-23T02:31:16.464Z,99.90
2018-07-23T02:33:44.937Z,99.90
2018-07-23T02:36:13.473Z,99.90
2018-07-23T02:38:42.161Z,99.90
2018-07-23T02:41:10.692Z,99.90
2018-07-23T02:43:39.160Z,99.90
2018-07-23T02:46:07.679Z,99.90
2018-07-23T02:48:36.149Z,99.90
2018-07-23T02:51:04.689Z,99.90
2018-07-23T02:53:33.229Z,99.90
2018-07-23T02:56:01.788Z,99.90
2018-07-23T02:58:30.292Z,99.90
2018-07-23T03:00:58.805Z,99.90
2018-07-23T03:03:27.268Z,99.90
2018-07-23T03:08:23.912Z,99.90
2018-07-23T03:10:52.400Z,99.90
2018-07-23T03:13:20.864Z,99.90
2018-07-23T03:15:49.356Z,99.90
2018-07-23T03:18:17.828Z,99.90
2018-07-23T03:20:46.392Z,99.90
2018-07-23T03:23:14.869Z,99.90
2018-07-23T03:25:43.712Z,99.90
2018-07-23T03:28:12.208Z,99.90
2018-07-23T03:30:40.722Z,99.90
2018-07-23T03:35:38.014Z,99.90
2018-07-23T03:38:07.276Z,99.90
2018-07-23T03:40:36.081Z,99.90
2018-07-23T03:43:09.262Z,99.90
2018-07-23T03:45:38.161Z,99.90
2018-07-23T03:48:06.898Z,99.90
2018-07-23T03:53:04.281Z,99.90
2018-07-23T03:55:32.969Z,99.90
2018-07-23T03:58:02.130Z,99.90
2018-07-23T04:00:31.388Z,99.90
2018-07-23T04:02:59.960Z,99.90
2018-07-23T04:05:28.475Z,99.90
2018-07-23T04:07:57.001Z,99.90
2018-07-23T04:12:54.557Z,99.90
2018-07-23T04:15:23.209Z,99.90
2018-07-23T04:17:57.189Z,99.90
2018-07-23T04:20:25.823Z,99.90
2018-07-23T04:22:54.413Z,99.90
2018-07-23T04:25:23.013Z,99.90
2018-07-23T04:27:51.618Z,99.90
2018-07-23T04:32:48.444Z,99.90
2018-07-23T04:35:16.909Z,99.90
2018-07-23T04:37:45.507Z,99.90
2018-07-23T04:40:14.016Z,99.90
2018-07-23T04:45:10.736Z,99.90
2018-07-23T04:47:39.304Z,99.90
2018-07-23T04:50:07.888Z,99.90
2018-07-23T04:52:36.458Z,99.90
2018-07-23T04:55:04.948Z,99.90
2018-07-23T04:57:33.452Z,99.90
2018-07-23T05:00:01.931Z,99.90
2018-07-23T05:02:30.428Z,99.90
2018-07-23T05:04:58.886Z,99.90
2018-07-23T05:07:27.376Z,99.90
2018-07-23T05:09:55.848Z,99.90
2018-07-23T05:12:24.348Z,99.90
2018-07-23T05:14:52.828Z,99.90
2018-07-23T05:17:21.340Z,99.90
2018-07-23T05:19:49.827Z,99.90
2018-07-23T05:22:18.328Z,99.90
2018-07-23T05:24:46.857Z,99.90
2018-07-23T05:27:15.380Z,99.90
2018-07-23T05:29:43.848Z,99.90
2018-07-23T05:32:12.845Z,99.90
2018-07-23T05:37:09.784Z,99.90
2018-07-23T05:39:38.300Z,99.90
2018-07-23T05:42:06.827Z,99.90
2018-07-23T05:44:35.336Z,99.90
2018-07-23T05:47:03.869Z,99.90
2018-07-23T05:49:32.408Z,99.90
2018-07-23T05:54:29.108Z,99.90
2018-07-23T05:56:57.583Z,99.90
2018-07-23T05:59:26.089Z,99.90
2018-07-23T06:01:54.564Z,99.90
2018-07-23T06:04:23.072Z,99.90
2018-07-23T06:06:51.599Z,99.90
2018-07-23T06:09:20.102Z,99.90
2018-07-23T06:11:48.665Z,99.90
2018-07-23T06:14:17.195Z,99.90
2018-07-23T06:16:45.666Z,99.90
2018-07-23T06:19:14.148Z,99.90
2018-07-23T06:21:42.624Z,99.90
2018-07-23T06:24:11.152Z,99.90
2018-07-23T06:29:07.788Z,99.90
2018-07-23T06:31:36.296Z,99.90
2018-07-23T06:36:32.984Z,99.90
2018-07-23T06:39:01.469Z,99.90
2018-07-23T06:41:29.972Z,99.90
2018-07-23T06:43:58.456Z,99.90
2018-07-23T06:46:26.945Z,99.90
2018-07-23T06:48:55.428Z,99.90
2018-07-23T06:51:23.898Z,99.90
2018-07-23T06:53:52.372Z,99.90
2018-07-23T06:56:20.844Z,99.90
2018-07-23T06:58:49.364Z,99.90
2018-07-23T07:01:18.285Z,99.90
2018-07-23T07:03:46.792Z,99.90
2018-07-23T07:06:15.322Z,99.90
2018-07-23T07:08:43.816Z,99.90
2018-07-23T07:11:12.315Z,99.90
2018-07-23T07:13:40.814Z,99.90
2018-07-23T07:16:09.303Z,99.90
2018-07-23T07:18:37.819Z,99.90
2018-07-23T07:21:06.766Z,99.90
2018-07-23T07:23:35.236Z,99.90
2018-07-23T07:26:03.752Z,99.90
2018-07-23T07:28:32.317Z,99.90
2018-07-23T07:31:00.812Z,99.90
2018-07-23T07:33:29.276Z,99.90
2018-07-23T07:35:57.821Z,99.90
2018-07-23T07:38:26.311Z,99.90
2018-07-23T07:45:51.144Z,99.90
2018-07-23T07:50:47.801Z,99.90
2018-07-23T07:55:44.420Z,99.90
2018-07-23T07:58:12.876Z,99.90
2018-07-23T08:00:41.379Z,99.90
2018-07-23T08:03:09.836Z,99.90
2018-07-23T08:05:38.320Z,99.90
2018-07-23T08:08:07.893Z,99.90
2018-07-23T08:10:36.388Z,99.90
2018-07-23T08:13:04.900Z,99.90
2018-07-23T08:15:33.384Z,99.90
2018-07-23T08:18:01.896Z,99.90
2018-07-23T08:20:30.387Z,99.90
2018-07-23T08:22:58.856Z,99.90
2018-07-23T08:25:27.373Z,99.90
2018-07-23T08:27:55.902Z,99.90
2018-07-23T08:30:24.400Z,99.90
2018-07-23T08:32:52.872Z,99.90
2018-07-23T08:35:21.440Z,99.90
2018-07-23T08:37:50.033Z,99.90
2018-07-23T08:40:18.560Z,99.90
2018-07-23T08:45:15.224Z,99.90
2018-07-23T08:47:43.688Z,99.90
2018-07-23T08:50:12.200Z,99.90
2018-07-23T08:52:40.666Z,99.90
2018-07-23T08:55:09.152Z,99.90
2018-07-23T08:57:37.628Z,99.90
2018-07-23T09:00:06.354Z,99.90
2018-07-23T09:02:34.899Z,99.90
2018-07-23T09:05:03.376Z,99.90
2018-07-23T09:07:31.860Z,99.90
2018-07-23T09:10:00.317Z,99.90
2018-07-23T09:12:28.812Z,99.90
2018-07-23T09:17:25.441Z,99.90
2018-07-23T09:19:53.908Z,99.90
2018-07-23T09:22:22.430Z,99.90
2018-07-23T09:27:19.088Z,99.90
2018-07-23T09:29:47.556Z,99.90
2018-07-23T09:32:16.049Z,99.90
2018-07-23T09:34:44.516Z,99.90
2018-07-23T09:37:13.022Z,99.90
2018-07-23T09:39:41.476Z,99.90
2018-07-23T09:42:09.965Z,99.90
2018-07-23T09:44:38.432Z,99.80
2018-07-23T09:47:06.964Z,99.90
2018-07-23T09:49:35.429Z,99.90
2018-07-23T09:52:03.930Z,99.90
2018-07-23T09:54:32.396Z,99.90
2018-07-23T09:57:00.901Z,99.90
2018-07-23T09:59:29.376Z,99.90
2018-07-23T10:01:57.864Z,99.90
2018-07-23T10:04:26.324Z,99.90
2018-07-23T10:06:54.851Z,99.10
2018-07-23T10:09:23.312Z,99.20
2018-07-23T10:11:51.811Z,98.80
2018-07-23T10:14:20.348Z,99.00
2018-07-23T10:16:48.816Z,99.90
2018-07-23T10:19:17.316Z,98.80
2018-07-23T10:21:45.787Z,99.90
2018-07-23T10:26:42.415Z,98.30
2018-07-23T10:29:10.900Z,98.80
2018-07-23T10:31:39.381Z,98.90
2018-07-23T10:34:07.892Z,98.00
2018-07-23T10:36:36.361Z,96.70
2018-07-23T10:41:34.585Z,96.10
2018-07-23T10:44:03.117Z,95.20
2018-07-23T10:46:31.584Z,96.10
2018-07-23T10:49:00.100Z,94.60
2018-07-23T10:53:56.741Z,92.60
2018-07-23T10:56:25.228Z,91.60
2018-07-23T10:58:53.732Z,91.60
2018-07-23T11:03:50.356Z,91.30
2018-07-23T11:06:18.853Z,90.90
2018-07-23T11:08:47.332Z,92.60
2018-07-23T11:11:15.809Z,93.90
2018-07-23T11:13:44.276Z,93.10
2018-07-23T11:16:12.745Z,91.80
2018-07-23T11:18:41.236Z,90.60
2018-07-23T11:21:09.705Z,87.40
2018-07-23T11:23:38.220Z,90.60
2018-07-23T11:26:06.707Z,85.30
2018-07-23T11:31:03.340Z,76.10
2018-07-23T11:33:31.836Z,71.20
2018-07-23T11:36:00.300Z,72.40
2018-07-23T11:38:28.776Z,67.40
2018-07-23T11:40:57.244Z,63.90
2018-07-23T11:43:25.717Z,63.70
2018-07-23T11:45:54.248Z,59.70
2018-07-23T11:50:50.924Z,55.70
2018-07-23T11:53:19.404Z,55.10
2018-07-23T11:55:47.861Z,55.10
2018-07-23T11:58:16.376Z,53.00
2018-07-23T12:00:44.888Z,52.50
2018-07-23T12:03:13.379Z,48.30
2018-07-23T12:05:41.864Z,47.80
2018-07-23T12:08:10.320Z,46.60
2018-07-23T12:10:38.796Z,45.70
2018-07-23T12:13:07.440Z,45.70
2018-07-23T12:15:35.916Z,42.50
2018-07-23T12:18:04.681Z,41.70
2018-07-23T12:20:33.179Z,41.30
2018-07-23T12:23:01.654Z,42.00
2018-07-23T12:25:30.135Z,43.10
2018-07-23T12:27:58.591Z,43.80
2018-07-23T12:30:27.071Z,45.10
2018-07-23T12:32:55.564Z,46.10
2018-07-23T12:35:24.057Z,47.50
2018-07-23T12:37:52.513Z,45.10
2018-07-23T12:40:21.007Z,43.50
2018-07-23T12:45:17.660Z,35.60
2018-07-23T12:47:46.225Z,33.60
2018-07-23T12:50:14.717Z,30.20
2018-07-23T12:52:43.239Z,29.60
2018-07-23T12:55:11.696Z,30.90
2018-07-23T12:57:40.185Z,30.50
2018-07-23T13:00:08.745Z,31.70
2018-07-23T13:02:37.221Z,32.10
2018-07-23T13:05:05.725Z,33.30
2018-07-23T13:07:34.237Z,34.90
2018-07-23T13:10:03.117Z,36.50
2018-07-23T13:12:31.597Z,38.20
2018-07-23T13:15:00.329Z,39.80
2018-07-23T13:17:28.801Z,40.70
2018-07-23T13:19:57.392Z,41.70
2018-07-23T13:22:25.924Z,42.90
2018-07-23T13:24:54.437Z,43.60
2018-07-23T13:29:51.070Z,45.50
2018-07-23T13:32:19.566Z,45.90
2018-07-23T13:34:48.048Z,45.10
2018-07-23T13:37:16.520Z,45.30
2018-07-23T13:39:45.008Z,45.30
2018-07-23T13:42:13.472Z,46.00
2018-07-23T13:44:41.957Z,43.30
2018-07-23T13:47:10.411Z,43.40
2018-07-23T13:49:38.876Z,42.90
2018-07-23T13:52:07.368Z,41.00
2018-07-23T13:54:35.837Z,41.00
2018-07-23T13:57:04.444Z,40.60
2018-07-23T13:59:32.900Z,40.40
2018-07-23T14:02:01.400Z,39.90
2018-07-23T14:04:29.871Z,38.20
2018-07-23T14:06:58.399Z,38.50
2018-07-23T14:09:26.852Z,39.00
2018-07-23T14:11:55.344Z,39.70
2018-07-23T14:14:23.801Z,40.40
2018-07-23T14:16:52.300Z,40.70
2018-07-23T14:19:20.768Z,41.80
2018-07-23T14:21:49.264Z,43.40
2018-07-23T14:24:17.732Z,43.00
2018-07-23T14:26:46.219Z,43.40
2018-07-23T14:29:14.677Z,44.60
2018-07-23T14:31:43.196Z,44.70
2018-07-23T14:34:11.652Z,44.60
2018-07-23T14:36:40.304Z,45.80
2018-07-23T14:39:11.392Z,47.00
2018-07-23T14:41:39.905Z,45.30
2018-07-23T14:44:08.480Z,45.60
2018-07-23T14:46:37.322Z,46.50
2018-07-23T14:49:05.948Z,47.00
2018-07-23T14:51:34.449Z,45.80
2018-07-23T14:54:03.156Z,45.90
2018-07-23T14:59:00.204Z,48.00
2018-07-23T15:01:28.692Z,46.60
2018-07-23T15:03:57.176Z,46.80
2018-07-23T15:08:53.801Z,47.30
2018-07-23T15:11:22.294Z,46.50
2018-07-23T15:13:50.748Z,46.30
2018-07-23T15:16:19.220Z,46.20
2018-07-23T15:18:47.684Z,45.90
2018-07-23T15:21:16.200Z,45.40
2018-07-23T15:23:44.785Z,45.60
2018-07-23T15:26:13.320Z,45.30
2018-07-23T15:31:09.904Z,44.50
2018-07-23T15:33:38.385Z,45.20
2018-07-23T15:36:06.861Z,45.20
2018-07-23T15:38:35.409Z,44.00
2018-07-23T15:41:03.826Z,44.40
2018-07-23T15:43:32.329Z,43.10
2018-07-23T15:46:00.941Z,44.00
2018-07-23T15:48:29.352Z,44.20
2018-07-23T15:53:25.968Z,45.60
2018-07-23T15:55:54.439Z,45.80
2018-07-23T15:58:22.919Z,45.80
2018-07-23T16:00:51.376Z,45.70
2018-07-23T16:03:19.871Z,46.20
2018-07-23T16:05:48.336Z,46.70
2018-07-23T16:08:16.864Z,46.90
2018-07-23T16:10:45.335Z,47.00
2018-07-23T16:13:13.835Z,46.80
2018-07-23T16:15:42.296Z,48.00
2018-07-23T16:18:10.808Z,48.10
2018-07-23T16:20:39.284Z,45.90
2018-07-23T16:23:07.863Z,47.50
2018-07-23T16:25:36.331Z,46.00
2018-07-23T16:28:04.867Z,45.40
2018-07-23T16:30:33.331Z,45.20
2018-07-23T16:35:29.987Z,44.60
2018-07-23T16:40:26.660Z,44.50
2018-07-23T16:42:55.136Z,45.00
2018-07-23T16:45:23.615Z,44.40
2018-07-23T16:47:52.099Z,44.00
2018-07-23T16:50:20.555Z,44.70
2018-07-23T16:52:49.027Z,44.00
2018-07-23T16:55:17.480Z,44.30
2018-07-23T16:57:45.963Z,45.60
2018-07-23T17:00:15.066Z,45.10
2018-07-23T17:02:43.533Z,45.40
2018-07-23T17:05:12.016Z,44.90
2018-07-23T17:07:40.472Z,46.00
2018-07-23T17:10:08.983Z,46.10
2018-07-23T17:12:37.459Z,46.30
2018-07-23T17:15:06.168Z,46.50
2018-07-23T17:17:34.656Z,46.30
2018-07-23T17:20:03.232Z,45.90
2018-07-23T17:24:59.864Z,44.50
2018-07-23T17:27:28.332Z,45.90
2018-07-23T17:29:56.823Z,44.90
2018-07-23T17:32:25.288Z,44.80
2018-07-23T17:34:53.771Z,44.80
2018-07-23T17:37:22.248Z,45.60
2018-07-23T17:39:50.720Z,45.50
2018-07-23T17:42:19.180Z,46.30
2018-07-23T17:44:47.714Z,46.50
2018-07-23T17:47:17.019Z,47.00
2018-07-23T17:49:45.503Z,47.10
2018-07-23T17:52:13.971Z,46.70
2018-07-23T17:54:42.484Z,47.20
2018-07-23T17:57:10.947Z,47.70
2018-07-23T17:59:39.469Z,48.30
2018-07-23T18:02:08.175Z,48.40
2018-07-23T18:07:05.179Z,48.40
2018-07-23T18:09:33.675Z,49.20
2018-07-23T18:12:02.141Z,48.90
2018-07-23T18:14:30.628Z,49.50
2018-07-23T18:16:59.088Z,49.70
2018-07-23T18:19:27.573Z,49.70
2018-07-23T18:21:56.027Z,48.90
2018-07-23T18:26:52.648Z,49.10
2018-07-23T18:29:21.107Z,49.70
2018-07-23T18:31:49.596Z,50.20
2018-07-23T18:34:18.048Z,50.40
2018-07-23T18:36:46.548Z,50.40
2018-07-23T18:39:15.012Z,50.10
2018-07-23T18:41:43.487Z,50.10
2018-07-23T18:44:11.941Z,50.30
2018-07-23T18:46:40.423Z,51.10
2018-07-23T18:49:28.290Z,51.80
2018-07-23T18:51:57.067Z,51.80
2018-07-23T18:59:26.088Z,52.00
2018-07-23T19:04:23.484Z,53.00
2018-07-23T19:06:51.995Z,52.40
2018-07-23T19:09:21.751Z,52.10
2018-07-23T19:11:51.499Z,52.90
2018-07-23T19:14:20.252Z,53.40
2018-07-23T19:16:49.678Z,53.10
2018-07-23T19:19:18.167Z,54.00
2018-07-23T19:21:46.652Z,53.60
2018-07-23T19:24:15.136Z,54.30
2018-07-23T19:26:43.640Z,54.80
2018-07-23T19:29:12.156Z,54.50
2018-07-23T19:31:40.695Z,55.30
2018-07-23T19:34:09.155Z,55.40
2018-07-23T19:36:37.707Z,56.00
2018-07-23T19:39:08.467Z,56.40
2018-07-23T19:41:37.388Z,56.70
2018-07-23T19:44:06.380Z,56.80
2018-07-23T19:46:34.876Z,57.10
2018-07-23T19:49:03.395Z,58.20
2018-07-23T19:51:31.895Z,58.50
2018-07-23T19:56:28.643Z,58.80
2018-07-23T20:01:25.279Z,59.20
2018-07-23T20:03:53.816Z,59.60
2018-07-23T20:06:23.511Z,59.90
2018-07-23T20:08:53.091Z,60.20
2018-07-23T20:11:22.570Z,59.30
2018-07-23T20:13:51.188Z,59.20
2018-07-23T20:18:47.976Z,61.20
2018-07-23T20:21:16.560Z,62.80
2018-07-23T20:23:45.343Z,63.00
2018-07-23T20:26:14.072Z,63.40
2018-07-23T20:28:42.616Z,64.50
2018-07-23T20:31:11.119Z,65.40
2018-07-23T20:33:39.619Z,66.00
2018-07-23T20:36:08.192Z,66.70
2018-07-23T20:38:36.948Z,66.10
2018-07-23T20:41:05.512Z,67.20
2018-07-23T20:43:34.216Z,67.90
2018-07-23T20:48:31.300Z,68.50
2018-07-23T20:50:59.835Z,69.80
2018-07-23T20:53:28.356Z,69.80
2018-07-23T20:55:56.828Z,70.90
2018-07-23T20:58:25.328Z,72.00
2018-07-23T21:00:53.824Z,73.20
2018-07-23T21:03:22.343Z,74.10
2018-07-23T21:05:50.800Z,75.10
2018-07-23T21:08:19.273Z,76.60
2018-07-23T21:10:47.772Z,78.00
2018-07-23T21:13:16.264Z,79.40
2018-07-23T21:15:44.788Z,81.30
2018-07-23T21:18:13.271Z,83.80
2018-07-23T21:20:41.752Z,85.90
2018-07-23T21:23:10.276Z,88.60
2018-07-23T21:25:38.779Z,90.60
2018-07-23T21:28:07.344Z,91.60
2018-07-23T21:30:35.871Z,93.00
2018-07-23T21:33:04.393Z,94.10
2018-07-23T21:35:32.913Z,95.40
2018-07-23T21:38:01.384Z,96.70
2018-07-23T21:40:29.882Z,98.30
2018-07-23T21:42:58.344Z,99.10
2018-07-23T21:45:26.848Z,99.70
2018-07-23T21:47:55.324Z,99.90
2018-07-23T21:50:23.863Z,99.90
2018-07-23T21:52:52.339Z,99.90
2018-07-23T21:55:20.859Z,99.90
2018-07-23T21:57:49.346Z,99.90
2018-07-23T22:00:17.934Z,99.90
2018-07-23T22:02:46.447Z,99.90
2018-07-23T22:05:14.916Z,99.90
2018-07-23T22:10:11.576Z,99.90
2018-07-23T22:15:10.277Z,99.90
2018-07-23T22:17:38.896Z,99.90
2018-07-23T22:20:08.205Z,99.90
2018-07-23T22:22:36.708Z,99.90
2018-07-23T22:25:05.640Z,99.90
2018-07-23T22:30:02.305Z,99.90
2018-07-23T22:32:30.768Z,99.90
2018-07-23T22:34:59.261Z,99.90
2018-07-23T22:37:27.760Z,99.90
2018-07-23T22:39:56.263Z,99.90
2018-07-23T22:42:25.668Z,99.90
2018-07-23T22:44:54.156Z,99.90
2018-07-23T22:47:22.627Z,99.90
2018-07-23T22:49:51.187Z,99.90
2018-07-23T22:52:19.668Z,99.90
2018-07-23T22:54:48.129Z,99.90
2018-07-23T23:02:12.928Z,99.90
2018-07-23T23:04:41.392Z,99.90
2018-07-23T23:07:09.912Z,99.90
2018-07-23T23:12:06.580Z,99.90
2018-07-23T23:14:35.040Z,99.90
2018-07-23T23:17:03.525Z,99.90
2018-07-23T23:19:31.988Z,99.90
2018-07-23T23:22:00.500Z,99.90
2018-07-23T23:24:28.975Z,99.90
2018-07-23T23:26:57.471Z,99.90
2018-07-23T23:31:54.095Z,99.90
2018-07-23T23:34:22.564Z,99.90
2018-07-23T23:36:51.060Z,99.90
2018-07-23T23:39:19.532Z,99.90
2018-07-23T23:41:48.020Z,99.90
2018-07-23T23:44:16.487Z,99.90
2018-07-23T23:46:44.995Z,99.90
2018-07-23T23:51:41.652Z,99.90
2018-07-23T23:56:38.323Z,99.90
2018-07-23T23:59:06.819Z,99.90
